sensor_id;sensor_type;location;lat;lon;timestamp;temperature;humidity
24252;DHT22;12380;51.118;4.176;2023-12-22T00:01:14;10.10;14.00
24252;DHT22;12380;51.118;4.176;2023-12-22T00:03:43;10.00;14.10
24252;DHT22;12380;51.118;4.176;2023-12-22T00:06:11;10.00;1.00
24252;DHT22;12380;51.118;4.176;2023-12-22T00:08:37;9.80;5.50
24252;DHT22;12380;51.118;4.176;2023-12-22T00:11:02;9.80;6.20
24252;DHT22;12380;51.118;4.176;2023-12-22T00:13:30;9.70;9.30
24252;DHT22;12380;51.118;4.176;2023-12-22T00:15:58;9.60;6.30
24252;DHT22;12380;51.118;4.176;2023-12-22T00:18:24;9.60;4.70
24252;DHT22;12380;51.118;4.176;2023-12-22T00:20:49;9.70;11.50
24252;DHT22;12380;51.118;4.176;2023-12-22T00:23:15;9.60;20.40
24252;DHT22;12380;51.118;4.176;2023-12-22T00:25:40;9.50;31.20
24252;DHT22;12380;51.118;4.176;2023-12-22T00:28:06;9.40;56.80
24252;DHT22;12380;51.118;4.176;2023-12-22T00:30:31;9.40;84.70
24252;DHT22;12380;51.118;4.176;2023-12-22T00:32:57;9.50;71.20
24252;DHT22;12380;51.118;4.176;2023-12-22T00:35:22;9.50;85.80
24252;DHT22;12380;51.118;4.176;2023-12-22T00:37:48;9.60;98.30
24252;DHT22;12380;51.118;4.176;2023-12-22T00:40:14;9.60;99.90
24252;DHT22;12380;51.118;4.176;2023-12-22T00:42:39;9.60;99.90
24252;DHT22;12380;51.118;4.176;2023-12-22T00:45:05;9.60;99.90
24252;DHT22;12380;51.118;4.176;2023-12-22T00:47:33;9.70;99.90
24252;DHT22;12380;51.118;4.176;2023-12-22T00:50:02;9.80;99.90
24252;DHT22;12380;51.118;4.176;2023-12-22T00:52:29;9.80;99.90
24252;DHT22;12380;51.118;4.176;2023-12-22T00:54:56;9.80;99.90
24252;DHT22;12380;51.118;4.176;2023-12-22T00:57:22;9.80;99.90
24252;DHT22;12380;51.118;4.176;2023-12-22T00:59:48;9.90;99.90
24252;DHT22;12380;51.118;4.176;2023-12-22T01:02:14;10.00;71.40
24252;DHT22;12380;51.118;4.176;2023-12-22T01:04:42;9.90;92.70
24252;DHT22;12380;51.118;4.176;2023-12-22T01:07:08;9.90;67.90
24252;DHT22;12380;51.118;4.176;2023-12-22T01:09:34;9.90;29.30
24252;DHT22;12380;51.118;4.176;2023-12-22T01:12:00;9.90;33.00
24252;DHT22;12380;51.118;4.176;2023-12-22T01:14:30;9.90;10.10
24252;DHT22;12380;51.118;4.176;2023-12-22T01:16:58;9.90;10.90
24252;DHT22;12380;51.118;4.176;2023-12-22T01:19:28;9.90;15.20
24252;DHT22;12380;51.118;4.176;2023-12-22T01:21:53;9.90;16.50
24252;DHT22;12380;51.118;4.176;2023-12-22T01:24:19;10.00;12.40
24252;DHT22;12380;51.118;4.176;2023-12-22T01:26:44;10.00;24.60
24252;DHT22;12380;51.118;4.176;2023-12-22T01:29:10;10.00;29.20
24252;DHT22;12380;51.118;4.176;2023-12-22T01:31:36;10.10;1.00
24252;DHT22;12380;51.118;4.176;2023-12-22T01:34:01;10.10;1.00
24252;DHT22;12380;51.118;4.176;2023-12-22T01:36:27;10.20;1.00
24252;DHT22;12380;51.118;4.176;2023-12-22T01:38:52;10.10;1.00
24252;DHT22;12380;51.118;4.176;2023-12-22T01:41:18;10.10;18.50
24252;DHT22;12380;51.118;4.176;2023-12-22T01:43:46;10.00;3.10
24252;DHT22;12380;51.118;4.176;2023-12-22T01:46:11;10.00;16.60
24252;DHT22;12380;51.118;4.176;2023-12-22T01:48:37;10.10;3.80
24252;DHT22;12380;51.118;4.176;2023-12-22T01:51:05;10.10;1.00
24252;DHT22;12380;51.118;4.176;2023-12-22T01:53:32;10.10;1.00
24252;DHT22;12380;51.118;4.176;2023-12-22T01:55:58;10.10;1.00
24252;DHT22;12380;51.118;4.176;2023-12-22T01:58:24;10.10;1.00
24252;DHT22;12380;51.118;4.176;2023-12-22T02:00:52;10.00;1.00
24252;DHT22;12380;51.118;4.176;2023-12-22T02:03:18;10.00;1.00
24252;DHT22;12380;51.118;4.176;2023-12-22T02:05:43;9.90;1.00
24252;DHT22;12380;51.118;4.176;2023-12-22T02:08:11;9.90;1.00
24252;DHT22;12380;51.118;4.176;2023-12-22T02:10:39;9.90;1.00
24252;DHT22;12380;51.118;4.176;2023-12-22T02:13:07;10.00;1.00
24252;DHT22;12380;51.118;4.176;2023-12-22T02:15:35;10.00;1.00
24252;DHT22;12380;51.118;4.176;2023-12-22T02:20:29;10.00;1.00
24252;DHT22;12380;51.118;4.176;2023-12-22T02:22:55;9.90;1.00
24252;DHT22;12380;51.118;4.176;2023-12-22T02:25:20;9.80;1.00
24252;DHT22;12380;51.118;4.176;2023-12-22T02:28:01;9.80;1.00
24252;DHT22;12380;51.118;4.176;2023-12-22T02:30:39;9.70;1.00
24252;DHT22;12380;51.118;4.176;2023-12-22T02:33:06;9.70;1.00
24252;DHT22;12380;51.118;4.176;2023-12-22T02:35:35;9.80;1.00
24252;DHT22;12380;51.118;4.176;2023-12-22T02:38:01;9.80;1.00
24252;DHT22;12380;51.118;4.176;2023-12-22T02:40:28;9.80;1.00
24252;DHT22;12380;51.118;4.176;2023-12-22T02:42:54;9.80;1.00
24252;DHT22;12380;51.118;4.176;2023-12-22T02:45:20;9.80;1.00
24252;DHT22;12380;51.118;4.176;2023-12-22T02:47:46;9.70;1.00
24252;DHT22;12380;51.118;4.176;2023-12-22T02:50:12;9.70;1.00
24252;DHT22;12380;51.118;4.176;2023-12-22T02:52:38;9.70;1.00
24252;DHT22;12380;51.118;4.176;2023-12-22T02:55:04;9.70;1.00
24252;DHT22;12380;51.118;4.176;2023-12-22T02:57:33;9.70;1.00
24252;DHT22;12380;51.118;4.176;2023-12-22T03:00:01;9.70;1.00
24252;DHT22;12380;51.118;4.176;2023-12-22T03:02:26;9.70;1.00
24252;DHT22;12380;51.118;4.176;2023-12-22T03:04:52;9.70;14.50
24252;DHT22;12380;51.118;4.176;2023-12-22T03:07:17;9.80;8.80
24252;DHT22;12380;51.118;4.176;2023-12-22T03:09:43;9.70;65.50
24252;DHT22;12380;51.118;4.176;2023-12-22T03:12:09;9.80;45.80
24252;DHT22;12380;51.118;4.176;2023-12-22T03:14:34;9.80;73.30
24252;DHT22;12380;51.118;4.176;2023-12-22T03:17:00;9.60;99.90
24252;DHT22;12380;51.118;4.176;2023-12-22T03:19:26;9.60;99.90
24252;DHT22;12380;51.118;4.176;2023-12-22T03:21:54;9.60;99.90
24252;DHT22;12380;51.118;4.176;2023-12-22T03:24:22;9.60;99.90
24252;DHT22;12380;51.118;4.176;2023-12-22T03:26:48;9.50;99.90
24252;DHT22;12380;51.118;4.176;2023-12-22T03:29:14;9.60;99.90
24252;DHT22;12380;51.118;4.176;2023-12-22T03:31:39;9.60;99.90
24252;DHT22;12380;51.118;4.176;2023-12-22T03:34:05;9.70;99.90
24252;DHT22;12380;51.118;4.176;2023-12-22T03:36:33;9.70;99.90
24252;DHT22;12380;51.118;4.176;2023-12-22T03:38:59;9.60;99.90
24252;DHT22;12380;51.118;4.176;2023-12-22T03:41:24;9.60;99.90
24252;DHT22;12380;51.118;4.176;2023-12-22T03:43:54;9.60;99.90
24252;DHT22;12380;51.118;4.176;2023-12-22T03:46:20;9.40;99.90
24252;DHT22;12380;51.118;4.176;2023-12-22T03:48:45;9.50;99.90
24252;DHT22;12380;51.118;4.176;2023-12-22T03:51:13;9.40;99.90
24252;DHT22;12380;51.118;4.176;2023-12-22T03:53:40;9.30;99.90
24252;DHT22;12380;51.118;4.176;2023-12-22T03:56:06;9.20;99.90
24252;DHT22;12380;51.118;4.176;2023-12-22T03:58:34;9.20;99.90
24252;DHT22;12380;51.118;4.176;2023-12-22T04:01:02;9.20;99.90
24252;DHT22;12380;51.118;4.176;2023-12-22T04:03:28;9.20;99.90
24252;DHT22;12380;51.118;4.176;2023-12-22T04:05:53;9.20;99.90
24252;DHT22;12380;51.118;4.176;2023-12-22T04:08:19;9.10;99.90
24252;DHT22;12380;51.118;4.176;2023-12-22T04:10:46;9.10;99.90
24252;DHT22;12380;51.118;4.176;2023-12-22T04:13:11;9.20;99.90
24252;DHT22;12380;51.118;4.176;2023-12-22T04:15:37;9.10;99.90
24252;DHT22;12380;51.118;4.176;2023-12-22T04:18:02;9.20;99.90
24252;DHT22;12380;51.118;4.176;2023-12-22T04:20:28;9.20;99.90
24252;DHT22;12380;51.118;4.176;2023-12-22T04:22:53;9.30;99.90
24252;DHT22;12380;51.118;4.176;2023-12-22T04:25:19;9.20;99.90
24252;DHT22;12380;51.118;4.176;2023-12-22T04:27:45;9.20;99.90
24252;DHT22;12380;51.118;4.176;2023-12-22T04:30:10;9.20;99.90
24252;DHT22;12380;51.118;4.176;2023-12-22T04:32:36;9.20;99.90
24252;DHT22;12380;51.118;4.176;2023-12-22T04:35:02;9.20;99.90
24252;DHT22;12380;51.118;4.176;2023-12-22T04:37:27;9.30;99.90
24252;DHT22;12380;51.118;4.176;2023-12-22T04:39:53;9.40;99.90
24252;DHT22;12380;51.118;4.176;2023-12-22T04:42:19;9.40;99.90
24252;DHT22;12380;51.118;4.176;2023-12-22T04:44:44;9.30;99.90
24252;DHT22;12380;51.118;4.176;2023-12-22T04:47:10;9.20;99.90
24252;DHT22;12380;51.118;4.176;2023-12-22T04:49:38;9.10;99.90
24252;DHT22;12380;51.118;4.176;2023-12-22T04:52:03;9.10;99.90
24252;DHT22;12380;51.118;4.176;2023-12-22T04:54:29;9.30;99.90
24252;DHT22;12380;51.118;4.176;2023-12-22T04:56:54;9.30;99.90
24252;DHT22;12380;51.118;4.176;2023-12-22T04:59:20;9.30;99.90
24252;DHT22;12380;51.118;4.176;2023-12-22T05:01:45;9.40;99.90
24252;DHT22;12380;51.118;4.176;2023-12-22T05:04:11;9.30;99.90
24252;DHT22;12380;51.118;4.176;2023-12-22T05:06:37;9.40;99.90
24252;DHT22;12380;51.118;4.176;2023-12-22T05:09:02;9.40;99.90
24252;DHT22;12380;51.118;4.176;2023-12-22T05:11:28;9.50;92.10
24252;DHT22;12380;51.118;4.176;2023-12-22T05:13:54;9.60;96.70
24252;DHT22;12380;51.118;4.176;2023-12-22T05:16:19;9.60;86.20
24252;DHT22;12380;51.118;4.176;2023-12-22T05:18:46;9.60;69.50
24252;DHT22;12380;51.118;4.176;2023-12-22T05:21:12;9.70;63.10
24252;DHT22;12380;51.118;4.176;2023-12-22T05:23:38;9.70;52.90
24252;DHT22;12380;51.118;4.176;2023-12-22T05:26:03;9.80;33.60
24252;DHT22;12380;51.118;4.176;2023-12-22T05:28:29;9.80;33.10
24252;DHT22;12380;51.118;4.176;2023-12-22T05:30:55;9.80;12.20
24252;DHT22;12380;51.118;4.176;2023-12-22T05:33:22;9.80;33.30
24252;DHT22;12380;51.118;4.176;2023-12-22T05:35:48;9.90;1.00
24252;DHT22;12380;51.118;4.176;2023-12-22T05:38:13;9.90;1.00
24252;DHT22;12380;51.118;4.176;2023-12-22T05:40:39;9.90;1.00
24252;DHT22;12380;51.118;4.176;2023-12-22T05:43:04;9.90;17.30
24252;DHT22;12380;51.118;4.176;2023-12-22T05:45:30;10.00;12.20
24252;DHT22;12380;51.118;4.176;2023-12-22T05:47:55;10.00;14.40
24252;DHT22;12380;51.118;4.176;2023-12-22T05:50:21;10.10;21.30
24252;DHT22;12380;51.118;4.176;2023-12-22T05:52:47;10.00;6.00
24252;DHT22;12380;51.118;4.176;2023-12-22T05:55:12;10.10;3.70
24252;DHT22;12380;51.118;4.176;2023-12-22T05:57:43;10.10;1.00
24252;DHT22;12380;51.118;4.176;2023-12-22T06:00:09;10.20;1.00
24252;DHT22;12380;51.118;4.176;2023-12-22T06:02:39;10.20;1.00
24252;DHT22;12380;51.118;4.176;2023-12-22T06:05:04;10.30;1.00
24252;DHT22;12380;51.118;4.176;2023-12-22T06:07:30;10.30;1.00
24252;DHT22;12380;51.118;4.176;2023-12-22T06:09:55;10.30;1.00
24252;DHT22;12380;51.118;4.176;2023-12-22T06:12:21;10.30;13.20
24252;DHT22;12380;51.118;4.176;2023-12-22T06:14:46;10.30;1.00
24252;DHT22;12380;51.118;4.176;2023-12-22T06:17:12;10.30;1.90
24252;DHT22;12380;51.118;4.176;2023-12-22T06:19:37;10.30;1.00
24252;DHT22;12380;51.118;4.176;2023-12-22T06:22:05;10.30;1.00
24252;DHT22;12380;51.118;4.176;2023-12-22T06:24:34;10.30;15.70
24252;DHT22;12380;51.118;4.176;2023-12-22T06:26:59;10.30;13.90
24252;DHT22;12380;51.118;4.176;2023-12-22T06:29:25;10.40;21.00
24252;DHT22;12380;51.118;4.176;2023-12-22T06:31:50;10.30;56.80
24252;DHT22;12380;51.118;4.176;2023-12-22T06:34:16;10.20;88.70
24252;DHT22;12380;51.118;4.176;2023-12-22T06:36:42;10.10;99.90
24252;DHT22;12380;51.118;4.176;2023-12-22T06:39:10;10.20;99.90
24252;DHT22;12380;51.118;4.176;2023-12-22T06:41:36;10.10;99.90
24252;DHT22;12380;51.118;4.176;2023-12-22T06:44:01;10.10;99.90
24252;DHT22;12380;51.118;4.176;2023-12-22T06:46:27;10.10;99.90
24252;DHT22;12380;51.118;4.176;2023-12-22T06:48:56;10.10;99.90
24252;DHT22;12380;51.118;4.176;2023-12-22T06:51:29;10.10;99.90
24252;DHT22;12380;51.118;4.176;2023-12-22T06:54:04;10.00;99.90
24252;DHT22;12380;51.118;4.176;2023-12-22T06:56:33;9.90;99.90
24252;DHT22;12380;51.118;4.176;2023-12-22T06:58:59;9.80;99.90
24252;DHT22;12380;51.118;4.176;2023-12-22T07:01:25;9.60;99.90
24252;DHT22;12380;51.118;4.176;2023-12-22T07:03:53;9.50;99.90
24252;DHT22;12380;51.118;4.176;2023-12-22T07:06:19;9.40;99.90
24252;DHT22;12380;51.118;4.176;2023-12-22T07:11:30;9.40;99.90
24252;DHT22;12380;51.118;4.176;2023-12-22T07:13:55;9.30;99.90
24252;DHT22;12380;51.118;4.176;2023-12-22T07:16:21;9.40;99.90
24252;DHT22;12380;51.118;4.176;2023-12-22T07:18:46;9.50;99.90
24252;DHT22;12380;51.118;4.176;2023-12-22T07:21:17;9.40;99.90
24252;DHT22;12380;51.118;4.176;2023-12-22T07:23:46;9.40;99.90
24252;DHT22;12380;51.118;4.176;2023-12-22T07:26:14;9.40;99.90
24252;DHT22;12380;51.118;4.176;2023-12-22T07:28:40;9.50;99.90
24252;DHT22;12380;51.118;4.176;2023-12-22T07:31:05;9.60;99.90
24252;DHT22;12380;51.118;4.176;2023-12-22T07:33:31;9.60;99.90
24252;DHT22;12380;51.118;4.176;2023-12-22T07:36:01;9.60;99.90
24252;DHT22;12380;51.118;4.176;2023-12-22T07:38:27;9.60;99.90
24252;DHT22;12380;51.118;4.176;2023-12-22T07:40:54;9.50;99.90
24252;DHT22;12380;51.118;4.176;2023-12-22T07:43:20;9.60;99.90
24252;DHT22;12380;51.118;4.176;2023-12-22T07:45:48;9.50;99.90
24252;DHT22;12380;51.118;4.176;2023-12-22T07:48:15;9.50;99.90
24252;DHT22;12380;51.118;4.176;2023-12-22T07:50:41;9.50;99.90
24252;DHT22;12380;51.118;4.176;2023-12-22T07:53:07;9.50;99.90
24252;DHT22;12380;51.118;4.176;2023-12-22T07:55:35;9.50;99.90
24252;DHT22;12380;51.118;4.176;2023-12-22T07:58:04;9.60;99.90
24252;DHT22;12380;51.118;4.176;2023-12-22T08:00:29;9.50;99.90
24252;DHT22;12380;51.118;4.176;2023-12-22T08:02:55;9.50;99.90
24252;DHT22;12380;51.118;4.176;2023-12-22T08:05:21;9.60;99.90
24252;DHT22;12380;51.118;4.176;2023-12-22T08:07:46;9.60;99.90
24252;DHT22;12380;51.118;4.176;2023-12-22T08:10:12;9.70;99.90
24252;DHT22;12380;51.118;4.176;2023-12-22T08:12:37;9.70;99.90
24252;DHT22;12380;51.118;4.176;2023-12-22T08:15:03;9.60;99.90
24252;DHT22;12380;51.118;4.176;2023-12-22T08:17:29;9.70;99.90
24252;DHT22;12380;51.118;4.176;2023-12-22T08:19:54;9.80;99.90
24252;DHT22;12380;51.118;4.176;2023-12-22T08:22:22;9.90;99.90
24252;DHT22;12380;51.118;4.176;2023-12-22T08:24:48;9.90;99.90
24252;DHT22;12380;51.118;4.176;2023-12-22T08:27:14;9.90;99.90
24252;DHT22;12380;51.118;4.176;2023-12-22T08:29:39;9.90;99.90
24252;DHT22;12380;51.118;4.176;2023-12-22T08:32:05;9.90;99.90
24252;DHT22;12380;51.118;4.176;2023-12-22T08:34:30;9.90;99.90
24252;DHT22;12380;51.118;4.176;2023-12-22T08:36:57;10.00;99.90
24252;DHT22;12380;51.118;4.176;2023-12-22T08:39:23;9.90;99.90
24252;DHT22;12380;51.118;4.176;2023-12-22T08:41:49;9.90;99.90
24252;DHT22;12380;51.118;4.176;2023-12-22T08:44:18;9.90;99.90
24252;DHT22;12380;51.118;4.176;2023-12-22T08:46:44;10.00;99.90
24252;DHT22;12380;51.118;4.176;2023-12-22T08:49:12;10.00;99.90
24252;DHT22;12380;51.118;4.176;2023-12-22T08:51:37;10.00;99.90
24252;DHT22;12380;51.118;4.176;2023-12-22T08:54:03;10.00;99.90
24252;DHT22;12380;51.118;4.176;2023-12-22T08:56:31;10.10;99.90
24252;DHT22;12380;51.118;4.176;2023-12-22T08:58:57;10.10;99.90
24252;DHT22;12380;51.118;4.176;2023-12-22T09:01:24;10.00;99.90
24252;DHT22;12380;51.118;4.176;2023-12-22T09:03:50;10.20;99.90
24252;DHT22;12380;51.118;4.176;2023-12-22T09:06:19;10.20;99.90
24252;DHT22;12380;51.118;4.176;2023-12-22T09:08:45;10.30;99.90
24252;DHT22;12380;51.118;4.176;2023-12-22T09:11:15;10.20;99.90
24252;DHT22;12380;51.118;4.176;2023-12-22T09:13:41;10.10;99.90
24252;DHT22;12380;51.118;4.176;2023-12-22T09:16:07;10.10;99.90
24252;DHT22;12380;51.118;4.176;2023-12-22T09:18:37;10.10;99.90
24252;DHT22;12380;51.118;4.176;2023-12-22T09:21:03;10.00;99.90
24252;DHT22;12380;51.118;4.176;2023-12-22T09:23:32;10.10;99.90
24252;DHT22;12380;51.118;4.176;2023-12-22T09:25:57;10.20;99.90
24252;DHT22;12380;51.118;4.176;2023-12-22T09:28:23;10.10;99.90
24252;DHT22;12380;51.118;4.176;2023-12-22T09:30:49;10.10;99.90
24252;DHT22;12380;51.118;4.176;2023-12-22T09:33:14;10.20;99.90
24252;DHT22;12380;51.118;4.176;2023-12-22T09:35:40;10.20;99.90
24252;DHT22;12380;51.118;4.176;2023-12-22T09:38:07;10.20;99.90
24252;DHT22;12380;51.118;4.176;2023-12-22T09:40:34;10.30;99.90
24252;DHT22;12380;51.118;4.176;2023-12-22T09:43:01;10.30;99.90
24252;DHT22;12380;51.118;4.176;2023-12-22T09:45:27;10.40;99.90
24252;DHT22;12380;51.118;4.176;2023-12-22T09:47:53;10.40;99.90
24252;DHT22;12380;51.118;4.176;2023-12-22T09:50:20;10.40;99.90
24252;DHT22;12380;51.118;4.176;2023-12-22T09:52:46;10.40;99.90
24252;DHT22;12380;51.118;4.176;2023-12-22T09:55:12;10.40;99.90
24252;DHT22;12380;51.118;4.176;2023-12-22T09:57:38;10.50;99.90
24252;DHT22;12380;51.118;4.176;2023-12-22T10:00:08;10.60;99.90
24252;DHT22;12380;51.118;4.176;2023-12-22T10:02:34;10.70;99.90
24252;DHT22;12380;51.118;4.176;2023-12-22T10:05:00;10.70;99.90
24252;DHT22;12380;51.118;4.176;2023-12-22T10:07:26;10.80;99.90
24252;DHT22;12380;51.118;4.176;2023-12-22T10:09:52;10.80;99.90
24252;DHT22;12380;51.118;4.176;2023-12-22T10:12:20;10.90;99.90
24252;DHT22;12380;51.118;4.176;2023-12-22T10:14:49;10.90;99.90
24252;DHT22;12380;51.118;4.176;2023-12-22T10:17:15;10.90;99.90
24252;DHT22;12380;51.118;4.176;2023-12-22T10:19:42;10.90;99.90
24252;DHT22;12380;51.118;4.176;2023-12-22T10:22:07;10.90;99.90
24252;DHT22;12380;51.118;4.176;2023-12-22T10:24:36;10.90;99.90
24252;DHT22;12380;51.118;4.176;2023-12-22T10:27:02;10.90;99.90
24252;DHT22;12380;51.118;4.176;2023-12-22T10:29:28;11.00;99.90
24252;DHT22;12380;51.118;4.176;2023-12-22T10:31:53;11.00;99.90
24252;DHT22;12380;51.118;4.176;2023-12-22T10:34:21;11.00;99.90
24252;DHT22;12380;51.118;4.176;2023-12-22T10:36:47;10.90;99.90
24252;DHT22;12380;51.118;4.176;2023-12-22T10:39:12;10.90;99.90
24252;DHT22;12380;51.118;4.176;2023-12-22T10:41:38;11.00;99.90
24252;DHT22;12380;51.118;4.176;2023-12-22T10:44:03;10.80;99.90
24252;DHT22;12380;51.118;4.176;2023-12-22T10:46:31;10.70;99.90
24252;DHT22;12380;51.118;4.176;2023-12-22T10:49:01;10.70;99.90
24252;DHT22;12380;51.118;4.176;2023-12-22T10:51:28;10.70;99.90
24252;DHT22;12380;51.118;4.176;2023-12-22T10:53:57;10.80;99.90
24252;DHT22;12380;51.118;4.176;2023-12-22T10:56:23;10.80;99.90
24252;DHT22;12380;51.118;4.176;2023-12-22T10:58:48;10.80;99.90
24252;DHT22;12380;51.118;4.176;2023-12-22T11:01:14;10.70;99.90
24252;DHT22;12380;51.118;4.176;2023-12-22T11:03:41;10.70;99.90
24252;DHT22;12380;51.118;4.176;2023-12-22T11:06:10;10.60;99.90
24252;DHT22;12380;51.118;4.176;2023-12-22T11:08:36;10.60;99.90
24252;DHT22;12380;51.118;4.176;2023-12-22T11:11:02;10.60;99.90
24252;DHT22;12380;51.118;4.176;2023-12-22T11:13:39;10.70;99.90
24252;DHT22;12380;51.118;4.176;2023-12-22T11:16:05;10.70;99.90
24252;DHT22;12380;51.118;4.176;2023-12-22T11:18:31;10.70;99.90
24252;DHT22;12380;51.118;4.176;2023-12-22T11:21:00;10.60;99.90
24252;DHT22;12380;51.118;4.176;2023-12-22T11:23:27;10.70;99.90
24252;DHT22;12380;51.118;4.176;2023-12-22T11:25:53;10.80;99.90
24252;DHT22;12380;51.118;4.176;2023-12-22T11:28:19;10.80;99.90
24252;DHT22;12380;51.118;4.176;2023-12-22T11:30:48;10.80;99.90
24252;DHT22;12380;51.118;4.176;2023-12-22T11:33:15;10.80;99.90
24252;DHT22;12380;51.118;4.176;2023-12-22T11:35:41;11.00;99.90
24252;DHT22;12380;51.118;4.176;2023-12-22T11:38:08;11.00;99.90
24252;DHT22;12380;51.118;4.176;2023-12-22T11:40:34;11.10;99.90
24252;DHT22;12380;51.118;4.176;2023-12-22T11:43:00;10.90;99.90
24252;DHT22;12380;51.118;4.176;2023-12-22T11:45:26;11.00;99.90
24252;DHT22;12380;51.118;4.176;2023-12-22T11:48:04;11.00;99.90
24252;DHT22;12380;51.118;4.176;2023-12-22T11:50:32;11.10;99.90
24252;DHT22;12380;51.118;4.176;2023-12-22T11:53:17;11.10;99.90
24252;DHT22;12380;51.118;4.176;2023-12-22T12:01:02;11.30;99.90
24252;DHT22;12380;51.118;4.176;2023-12-22T12:03:31;11.40;99.90
24252;DHT22;12380;51.118;4.176;2023-12-22T12:08:44;11.40;99.90
24252;DHT22;12380;51.118;4.176;2023-12-22T12:11:09;11.30;99.90
24252;DHT22;12380;51.118;4.176;2023-12-22T12:13:36;11.30;99.90
24252;DHT22;12380;51.118;4.176;2023-12-22T12:16:03;11.20;99.90
24252;DHT22;12380;51.118;4.176;2023-12-22T12:18:39;11.20;99.90
24252;DHT22;12380;51.118;4.176;2023-12-22T12:21:08;11.20;99.90
24252;DHT22;12380;51.118;4.176;2023-12-22T12:23:35;11.20;99.90
24252;DHT22;12380;51.118;4.176;2023-12-22T12:26:07;11.20;99.90
24252;DHT22;12380;51.118;4.176;2023-12-22T12:28:33;11.20;99.90
24252;DHT22;12380;51.118;4.176;2023-12-22T12:31:00;11.30;99.90
24252;DHT22;12380;51.118;4.176;2023-12-22T12:33:26;11.20;99.90
24252;DHT22;12380;51.118;4.176;2023-12-22T12:35:52;11.30;99.90
24252;DHT22;12380;51.118;4.176;2023-12-22T12:38:19;11.20;99.90
24252;DHT22;12380;51.118;4.176;2023-12-22T12:40:46;11.20;99.90
24252;DHT22;12380;51.118;4.176;2023-12-22T12:43:14;11.20;99.90
24252;DHT22;12380;51.118;4.176;2023-12-22T12:45:40;11.20;99.90
24252;DHT22;12380;51.118;4.176;2023-12-22T12:48:08;11.20;99.90
24252;DHT22;12380;51.118;4.176;2023-12-22T12:50:34;11.20;99.90
24252;DHT22;12380;51.118;4.176;2023-12-22T12:53:00;11.20;99.90
24252;DHT22;12380;51.118;4.176;2023-12-22T12:55:26;11.30;99.90
24252;DHT22;12380;51.118;4.176;2023-12-22T12:57:52;11.20;99.90
24252;DHT22;12380;51.118;4.176;2023-12-22T13:02:49;11.30;99.90
24252;DHT22;12380;51.118;4.176;2023-12-22T13:05:21;11.30;99.90
24252;DHT22;12380;51.118;4.176;2023-12-22T13:07:47;11.20;99.90
24252;DHT22;12380;51.118;4.176;2023-12-22T13:10:22;11.20;99.90
24252;DHT22;12380;51.118;4.176;2023-12-22T13:12:49;11.20;99.90
24252;DHT22;12380;51.118;4.176;2023-12-22T13:15:17;11.30;99.90
24252;DHT22;12380;51.118;4.176;2023-12-22T13:17:43;11.30;99.90
24252;DHT22;12380;51.118;4.176;2023-12-22T13:20:09;11.20;99.90
24252;DHT22;12380;51.118;4.176;2023-12-22T13:22:35;11.20;99.90
24252;DHT22;12380;51.118;4.176;2023-12-22T13:25:01;11.20;99.90
24252;DHT22;12380;51.118;4.176;2023-12-22T13:27:29;11.20;99.90
24252;DHT22;12380;51.118;4.176;2023-12-22T13:29:54;11.20;99.90
24252;DHT22;12380;51.118;4.176;2023-12-22T13:32:20;11.10;99.90
24252;DHT22;12380;51.118;4.176;2023-12-22T13:34:53;11.00;99.90
24252;DHT22;12380;51.118;4.176;2023-12-22T13:37:19;11.10;99.90
24252;DHT22;12380;51.118;4.176;2023-12-22T13:39:45;11.00;99.90
24252;DHT22;12380;51.118;4.176;2023-12-22T13:42:14;11.20;99.90
24252;DHT22;12380;51.118;4.176;2023-12-22T13:44:44;11.20;99.90
24252;DHT22;12380;51.118;4.176;2023-12-22T13:47:15;11.10;99.90
24252;DHT22;12380;51.118;4.176;2023-12-22T13:49:41;11.10;99.90
24252;DHT22;12380;51.118;4.176;2023-12-22T13:52:07;11.20;99.90
24252;DHT22;12380;51.118;4.176;2023-12-22T13:54:35;11.20;99.90
24252;DHT22;12380;51.118;4.176;2023-12-22T13:57:00;11.30;99.90
24252;DHT22;12380;51.118;4.176;2023-12-22T13:59:33;11.30;99.90
24252;DHT22;12380;51.118;4.176;2023-12-22T14:01:59;11.30;99.90
24252;DHT22;12380;51.118;4.176;2023-12-22T14:04:25;11.30;99.90
24252;DHT22;12380;51.118;4.176;2023-12-22T14:06:54;11.20;99.90
24252;DHT22;12380;51.118;4.176;2023-12-22T14:09:19;11.30;99.90
24252;DHT22;12380;51.118;4.176;2023-12-22T14:11:49;11.20;99.90
24252;DHT22;12380;51.118;4.176;2023-12-22T14:14:15;11.30;99.90
24252;DHT22;12380;51.118;4.176;2023-12-22T14:16:42;11.30;99.90
24252;DHT22;12380;51.118;4.176;2023-12-22T14:19:07;11.30;99.90
24252;DHT22;12380;51.118;4.176;2023-12-22T14:21:33;11.30;99.90
24252;DHT22;12380;51.118;4.176;2023-12-22T14:23:58;11.30;99.90
24252;DHT22;12380;51.118;4.176;2023-12-22T14:26:24;11.30;99.90
24252;DHT22;12380;51.118;4.176;2023-12-22T14:28:49;11.40;99.90
24252;DHT22;12380;51.118;4.176;2023-12-22T14:31:17;11.30;99.90
24252;DHT22;12380;51.118;4.176;2023-12-22T14:33:43;11.30;99.90
24252;DHT22;12380;51.118;4.176;2023-12-22T14:36:09;11.40;99.90
24252;DHT22;12380;51.118;4.176;2023-12-22T14:38:37;11.40;99.90
24252;DHT22;12380;51.118;4.176;2023-12-22T14:41:05;11.40;99.90
24252;DHT22;12380;51.118;4.176;2023-12-22T14:43:31;11.20;99.90
24252;DHT22;12380;51.118;4.176;2023-12-22T14:45:57;11.30;99.90
24252;DHT22;12380;51.118;4.176;2023-12-22T14:48:22;11.40;99.90
24252;DHT22;12380;51.118;4.176;2023-12-22T14:50:48;11.30;99.90
24252;DHT22;12380;51.118;4.176;2023-12-22T14:53:15;11.30;99.90
24252;DHT22;12380;51.118;4.176;2023-12-22T14:55:41;11.30;99.90
24252;DHT22;12380;51.118;4.176;2023-12-22T14:58:07;11.40;99.90
24252;DHT22;12380;51.118;4.176;2023-12-22T15:00:35;11.40;99.90
24252;DHT22;12380;51.118;4.176;2023-12-22T15:03:00;11.30;99.90
24252;DHT22;12380;51.118;4.176;2023-12-22T15:05:26;11.30;99.90
24252;DHT22;12380;51.118;4.176;2023-12-22T15:07:55;11.30;99.90
24252;DHT22;12380;51.118;4.176;2023-12-22T15:10:20;11.30;99.90
24252;DHT22;12380;51.118;4.176;2023-12-22T15:12:46;11.40;99.90
24252;DHT22;12380;51.118;4.176;2023-12-22T15:15:14;11.30;99.90
24252;DHT22;12380;51.118;4.176;2023-12-22T15:17:39;11.30;99.90
24252;DHT22;12380;51.118;4.176;2023-12-22T15:20:05;11.20;99.90
24252;DHT22;12380;51.118;4.176;2023-12-22T15:22:31;11.20;99.90
24252;DHT22;12380;51.118;4.176;2023-12-22T15:24:57;11.20;99.90
24252;DHT22;12380;51.118;4.176;2023-12-22T15:27:23;11.20;99.90
24252;DHT22;12380;51.118;4.176;2023-12-22T15:29:49;11.10;99.90
24252;DHT22;12380;51.118;4.176;2023-12-22T15:32:14;11.20;99.90
24252;DHT22;12380;51.118;4.176;2023-12-22T15:34:41;11.20;99.90
24252;DHT22;12380;51.118;4.176;2023-12-22T15:37:07;11.30;99.90
24252;DHT22;12380;51.118;4.176;2023-12-22T15:39:33;11.30;99.90
24252;DHT22;12380;51.118;4.176;2023-12-22T15:41:59;11.40;99.90
24252;DHT22;12380;51.118;4.176;2023-12-22T15:44:27;11.40;99.90
24252;DHT22;12380;51.118;4.176;2023-12-22T15:46:55;11.30;99.90
24252;DHT22;12380;51.118;4.176;2023-12-22T15:49:20;11.40;99.90
24252;DHT22;12380;51.118;4.176;2023-12-22T15:51:46;11.30;99.90